首页
METAR-TAF:

METAR-TAF

机场 :

圣约翰斯国际机场

聖約翰斯, 紐芬蘭-拉布拉多, 加拿大

纬度: 47-37N, 经度: 052-44W, 海拔: 134米

当前天气观测

该预报发布于31分钟前的23:41 UTC
风速6节,风向南转南东
温度 5°C
湿度 100%
气压 1017 hPa
能見度: 0.6公里

METAR: CYYT 202341Z 16006KT 3/8SM R10/2800V6000FT/U FG VV002 05/05 A3003 RMK FG8 SLP175

时间: 21:42 (00:12 UTC)

预报

该预报发布于32分钟前的23:40 UTC
预报有效从21日的 00点(UTC)到 21日的 24点(UTC)
风速5节,风向南转南东
能見度: 0.4公里
层高于200英尺
短暂存在
从 21日的 00点(UTC)到 21日的 06点(UTC)
能見度: 9.7公里
阴天层高于500英尺
轻雾
成为
从 21日的 00点(UTC)到 21日的 02点(UTC)
风速5节,风向
从 21日的 0600点(UTC)
风速5节,风向西南
能見度: 1.6公里
多云层高于300英尺
轻雾
短暂存在
从 21日的 06点(UTC)到 21日的 13点(UTC)
能見度: 9.7公里
散云层高于300英尺
轻雾
从 21日的 1300点(UTC)
风速5节,风向南转西南
能見度: 9.7公里
阴天层高于800英尺
轻雾
成为
从 21日的 13点(UTC)到 21日的 15点(UTC)
能見度: 10公里
散云层高于800英尺
多云层高于2000英尺
从 21日的 1500点(UTC)
风速7节,风向南转南东
能見度: 10公里
多云层高于2000英尺
从 21日的 1900点(UTC)
风速7节,风向西南
能見度: 10公里
少量云层高于3000英尺
成为
从 21日的 21点(UTC)到 21日的 23点(UTC)
风速10节,风向西,有时为20节阵风

TAF: CYYT 202340Z 2100/2124 15005KT 1/4SM FG VV002 TEMPO 2100/2106 6SM BR OVC005 BECMG 2100/2102 18005KT FM210600 23005KT 1SM BR BKN003 TEMPO 2106/2113 6SM BR SCT003 FM211300 21005KT 6SM BR OVC008 BECMG 2113/2115 P6SM NSW SCT008 BKN020 FM211500 15007KT P6SM BKN020 FM211900 23007KT P6SM FEW030 BECMG 2121/2123 27010G20KT RMK NXT FCST BY 210600Z

超过4000个机场的气象观测和天气预报(METAR&TAF报告)。

可查询的气象台以黄色和红色小点在地图上表示。

将鼠标移到小点上方,可查看气象台名称。

然后点击查看天气观测和预报。

如需切换地图:点击带黑十字的绿色按钮放大地图;点击带横线的绿色按钮缩小地图;或者点击绿色箭头查看邻近地区的地图。


METAR-TAF: